createdAt,value
2018-07-23T00:01:06.522Z,95521.00
2018-07-23T00:03:43.442Z,95524.00
2018-07-23T00:06:20.484Z,95519.00
2018-07-23T00:08:52.273Z,95522.00
2018-07-23T00:11:28.807Z,95520.00
2018-07-23T00:14:02.160Z,95520.00
2018-07-23T00:16:38.009Z,95518.00
2018-07-23T00:19:14.630Z,95515.00
2018-07-23T00:21:52.557Z,95517.00
2018-07-23T00:24:30.956Z,95519.00
2018-07-23T00:27:10.144Z,95519.00
2018-07-23T00:29:44.133Z,95517.00
2018-07-23T00:32:17.133Z,95524.00
2018-07-23T00:34:48.248Z,95519.00
2018-07-23T00:37:19.350Z,95517.00
2018-07-23T00:39:50.451Z,95521.00
2018-07-23T00:42:21.900Z,95517.00
2018-07-23T00:44:52.947Z,95517.00
2018-07-23T00:47:24.032Z,95518.00
2018-07-23T00:49:54.927Z,95518.00
2018-07-23T00:52:26.277Z,95519.00
2018-07-23T00:54:57.208Z,95521.00
2018-07-23T00:57:28.584Z,95523.00
2018-07-23T00:59:59.668Z,95524.00
2018-07-23T01:02:30.820Z,95527.00
2018-07-23T01:05:01.970Z,95524.00
2018-07-23T01:07:33.093Z,95523.00
2018-07-23T01:10:04.631Z,95522.00
2018-07-23T01:12:36.323Z,95526.00
2018-07-23T01:15:08.236Z,95519.00
2018-07-23T01:17:41.735Z,95522.00
2018-07-23T01:20:14.476Z,95525.00
2018-07-23T01:22:45.476Z,95517.00
2018-07-23T01:25:24.488Z,95525.00
2018-07-23T01:28:03.711Z,95520.00
2018-07-23T01:30:37.614Z,95521.00
2018-07-23T01:33:10.338Z,95521.00
2018-07-23T01:35:46.485Z,95525.00
2018-07-23T01:38:24.477Z,95525.00
2018-07-23T01:40:57.343Z,95525.00
2018-07-23T01:43:28.612Z,95525.00
2018-07-23T01:46:04.531Z,95524.00
2018-07-23T01:48:36.812Z,95525.00
2018-07-23T01:51:07.903Z,95524.00
2018-07-23T01:53:39.293Z,95523.00
2018-07-23T01:56:10.326Z,95526.00
2018-07-23T01:58:41.307Z,95526.00
2018-07-23T02:01:13.195Z,95525.00
2018-07-23T02:03:44.744Z,95523.00
2018-07-23T02:06:15.773Z,95533.00
2018-07-23T02:08:46.838Z,95532.00
2018-07-23T02:11:18.239Z,95529.00
2018-07-23T02:13:49.246Z,95533.00
2018-07-23T02:16:20.195Z,95526.00
2018-07-23T02:18:51.180Z,95530.00
2018-07-23T02:21:22.212Z,95525.00
2018-07-23T02:23:53.777Z,95528.00
2018-07-23T02:26:24.760Z,95524.00
2018-07-23T02:28:58.496Z,95531.00
2018-07-23T02:31:29.755Z,95533.00
2018-07-23T02:34:00.929Z,95536.00
2018-07-23T02:36:32.407Z,95541.00
2018-07-23T02:39:03.646Z,95539.00
2018-07-23T02:41:34.707Z,95537.00
2018-07-23T02:44:05.947Z,95537.00
2018-07-23T02:46:37.061Z,95539.00
2018-07-23T02:49:08.540Z,95539.00
2018-07-23T02:51:39.702Z,95534.00
2018-07-23T02:54:11.110Z,95533.00
2018-07-23T02:56:42.107Z,95534.00
2018-07-23T02:59:13.155Z,95534.00
2018-07-23T03:01:44.182Z,95533.00
2018-07-23T03:04:15.230Z,95535.00
2018-07-23T03:06:46.170Z,95535.00
2018-07-23T03:09:17.290Z,95533.00
2018-07-23T03:11:48.647Z,95536.00
2018-07-23T03:14:19.797Z,95535.00
2018-07-23T03:16:50.824Z,95537.00
2018-07-23T03:19:22.245Z,95542.00
2018-07-23T03:21:53.307Z,95538.00
2018-07-23T03:24:25.112Z,95542.00
2018-07-23T03:26:56.484Z,95546.00
2018-07-23T03:29:27.538Z,95547.00
2018-07-23T03:31:58.708Z,95547.00
2018-07-23T03:34:30.168Z,95550.00
2018-07-23T03:37:01.499Z,95559.00
2018-07-23T03:39:32.905Z,95556.00
2018-07-23T03:42:05.548Z,95559.00
2018-07-23T03:44:36.958Z,95560.00
2018-07-23T03:47:10.399Z,95567.00
2018-07-23T03:49:42.305Z,95569.00
2018-07-23T03:52:13.726Z,95565.00
2018-07-23T03:54:45.512Z,95566.00
2018-07-23T03:57:18.912Z,95569.00
2018-07-23T03:59:50.221Z,95573.00
2018-07-23T04:02:21.119Z,95570.00
2018-07-23T04:04:52.296Z,95571.00
2018-07-23T04:07:23.754Z,95573.00
2018-07-23T04:09:54.869Z,95579.00
2018-07-23T04:12:26.535Z,95581.00
2018-07-23T04:14:58.259Z,95580.00
2018-07-23T04:17:29.283Z,95581.00
2018-07-23T04:20:00.857Z,95576.00
2018-07-23T04:22:32.035Z,95580.00
2018-07-23T04:25:03.657Z,95575.00
2018-07-23T04:27:34.673Z,95580.00
2018-07-23T04:30:06.246Z,95578.00
2018-07-23T04:32:37.391Z,95582.00
2018-07-23T04:35:11.799Z,95577.00
2018-07-23T04:37:43.094Z,95580.00
2018-07-23T04:40:14.517Z,95581.00
2018-07-23T04:42:45.659Z,95581.00
2018-07-23T04:45:19.004Z,95581.00
2018-07-23T04:47:51.989Z,95586.00
2018-07-23T04:50:25.759Z,95589.00
2018-07-23T04:52:56.954Z,95591.00
2018-07-23T04:55:28.415Z,95591.00
2018-07-23T04:57:59.648Z,95599.00
2018-07-23T05:00:33.365Z,95598.00
2018-07-23T05:03:05.153Z,95596.00
2018-07-23T05:05:36.723Z,95600.00
2018-07-23T05:08:12.988Z,95601.00
2018-07-23T05:10:45.208Z,95601.00
2018-07-23T05:13:16.356Z,95600.00
2018-07-23T05:15:47.576Z,95609.00
2018-07-23T05:18:18.602Z,95605.00
2018-07-23T05:20:49.718Z,95608.00
2018-07-23T05:23:20.804Z,95608.00
2018-07-23T05:25:51.893Z,95611.00
2018-07-23T05:28:22.916Z,95610.00
2018-07-23T05:30:53.784Z,95619.00
2018-07-23T05:33:24.660Z,95618.00
2018-07-23T05:35:55.557Z,95624.00
2018-07-23T05:38:30.739Z,95628.00
2018-07-23T05:41:02.559Z,95633.00
2018-07-23T05:43:33.585Z,95630.00
2018-07-23T05:46:05.959Z,95626.00
2018-07-23T05:48:39.650Z,95627.00
2018-07-23T05:51:11.248Z,95629.00
2018-07-23T05:53:42.548Z,95623.00
2018-07-23T05:56:13.937Z,95625.00
2018-07-23T05:58:44.823Z,95626.00
2018-07-23T06:01:15.778Z,95628.00
2018-07-23T06:03:46.670Z,95631.00
2018-07-23T06:06:19.375Z,95630.00
2018-07-23T06:08:50.865Z,95633.00
2018-07-23T06:11:22.312Z,95632.00
2018-07-23T06:13:55.306Z,95636.00
2018-07-23T06:16:26.882Z,95634.00
2018-07-23T06:19:04.197Z,95634.00
2018-07-23T06:21:35.579Z,95632.00
2018-07-23T06:24:07.397Z,95632.00
2018-07-23T06:26:38.435Z,95630.00
2018-07-23T06:29:09.564Z,95631.00
2018-07-23T06:31:40.844Z,95632.00
2018-07-23T06:34:13.654Z,95631.00
2018-07-23T06:36:44.741Z,95630.00
2018-07-23T06:39:15.698Z,95633.00
2018-07-23T06:41:46.729Z,95632.00
2018-07-23T06:44:17.768Z,95634.00
2018-07-23T06:46:52.399Z,95637.00
2018-07-23T06:49:24.073Z,95636.00
2018-07-23T06:51:55.278Z,95629.00
2018-07-23T06:54:26.366Z,95632.00
2018-07-23T06:56:57.527Z,95634.00
2018-07-23T06:59:28.843Z,95631.00
2018-07-23T07:02:07.130Z,95628.00
2018-07-23T07:04:44.549Z,95627.00
2018-07-23T07:07:15.849Z,95628.00
2018-07-23T07:09:46.831Z,95632.00
2018-07-23T07:12:19.622Z,95636.00
2018-07-23T07:14:51.922Z,95636.00
2018-07-23T07:17:23.732Z,95639.00
2018-07-23T07:19:55.080Z,95631.00
2018-07-23T07:22:26.001Z,95632.00
2018-07-23T07:24:57.278Z,95632.00
2018-07-23T07:27:28.577Z,95634.00
2018-07-23T07:30:00.252Z,95624.00
2018-07-23T07:32:31.343Z,95628.00
2018-07-23T07:35:05.058Z,95631.00
2018-07-23T07:37:36.247Z,95632.00
2018-07-23T07:40:07.309Z,95631.00
2018-07-23T07:42:38.308Z,95632.00
2018-07-23T07:45:09.652Z,95628.00
2018-07-23T07:47:42.492Z,95628.00
2018-07-23T07:50:18.775Z,95629.00
2018-07-23T07:52:57.590Z,95629.00
2018-07-23T07:55:30.712Z,95630.00
2018-07-23T07:58:15.231Z,95626.00
2018-07-23T08:00:49.529Z,95625.00
2018-07-23T08:03:24.722Z,95631.00
2018-07-23T08:06:12.468Z,95630.00
2018-07-23T08:08:52.589Z,95629.00
2018-07-23T08:11:25.715Z,95630.00
2018-07-23T08:13:56.854Z,95626.00
2018-07-23T08:16:30.644Z,95630.00
2018-07-23T08:19:02.333Z,95623.00
2018-07-23T08:21:33.635Z,95625.00
2018-07-23T08:24:05.107Z,95627.00
2018-07-23T08:26:36.898Z,95622.00
2018-07-23T08:29:09.534Z,95624.00
2018-07-23T08:31:40.914Z,95627.00
2018-07-23T08:34:11.988Z,95621.00
2018-07-23T08:36:43.187Z,95623.00
2018-07-23T08:39:14.353Z,95622.00
2018-07-23T08:41:45.283Z,95625.00
2018-07-23T08:44:16.705Z,95628.00
2018-07-23T08:46:48.723Z,95626.00
2018-07-23T08:49:19.803Z,95633.00
2018-07-23T08:51:50.986Z,95632.00
2018-07-23T08:54:25.048Z,95631.00
2018-07-23T08:56:56.346Z,95627.00
2018-07-23T08:59:27.398Z,95623.00
2018-07-23T09:01:58.568Z,95619.00
2018-07-23T09:04:29.988Z,95617.00
2018-07-23T09:07:01.199Z,95624.00
2018-07-23T09:09:32.721Z,95622.00
2018-07-23T09:12:04.218Z,95622.00
2018-07-23T09:14:35.798Z,95624.00
2018-07-23T09:17:06.984Z,95629.00
2018-07-23T09:19:38.195Z,95628.00
2018-07-23T09:22:09.788Z,95624.00
2018-07-23T09:24:41.000Z,95629.00
2018-07-23T09:27:12.987Z,95629.00
2018-07-23T09:29:44.143Z,95624.00
2018-07-23T09:32:15.355Z,95626.00
2018-07-23T09:34:46.580Z,95623.00
2018-07-23T09:37:19.324Z,95624.00
2018-07-23T09:39:50.309Z,95625.00
2018-07-23T09:42:21.316Z,95620.00
2018-07-23T09:45:05.084Z,95618.00
2018-07-23T09:47:52.558Z,95620.00
2018-07-23T09:50:35.292Z,95617.00
2018-07-23T09:53:09.003Z,95611.00
2018-07-23T09:55:45.676Z,95615.00
2018-07-23T09:58:19.639Z,95611.00
2018-07-23T10:00:55.333Z,95616.00
2018-07-23T10:03:26.702Z,95620.00
2018-07-23T10:05:58.741Z,95620.00
2018-07-23T10:08:30.716Z,95614.00
2018-07-23T10:11:02.217Z,95616.00
2018-07-23T10:13:33.327Z,95612.00
2018-07-23T10:16:04.691Z,95612.00
2018-07-23T10:18:38.873Z,95613.00
2018-07-23T10:21:11.571Z,95609.00
2018-07-23T10:23:42.665Z,95605.00
2018-07-23T10:26:16.714Z,95599.00
2018-07-23T10:28:47.987Z,95604.00
2018-07-23T10:31:19.173Z,95596.00
2018-07-23T10:33:50.134Z,95594.00
2018-07-23T10:36:21.222Z,95590.00
2018-07-23T10:38:53.016Z,95588.00
2018-07-23T10:41:23.968Z,95586.00
2018-07-23T10:43:55.500Z,95580.00
2018-07-23T10:46:26.581Z,95588.00
2018-07-23T10:48:57.572Z,95585.00
2018-07-23T10:51:29.517Z,95581.00
2018-07-23T10:54:01.856Z,95583.00
2018-07-23T10:56:40.763Z,95585.00
2018-07-23T10:59:12.124Z,95587.00
2018-07-23T11:01:43.534Z,95582.00
2018-07-23T11:07:17.065Z,95577.00
2018-07-23T11:09:48.375Z,95581.00
2018-07-23T11:12:19.919Z,95578.00
2018-07-23T11:14:51.564Z,95570.00
2018-07-23T11:17:22.532Z,95571.00
2018-07-23T11:19:53.551Z,95566.00
2018-07-23T11:22:30.730Z,95568.00
2018-07-23T11:25:38.219Z,95564.00
2018-07-23T11:27:33.039Z,95562.00
2018-07-23T11:30:04.588Z,95557.00
2018-07-23T11:32:36.246Z,95560.00
2018-07-23T11:35:07.555Z,95562.00
2018-07-23T11:37:38.568Z,95563.00
2018-07-23T11:40:09.760Z,95563.00
2018-07-23T11:42:45.091Z,95568.00
2018-07-23T11:45:20.787Z,95568.00
2018-07-23T11:48:00.113Z,95563.00
2018-07-23T11:50:33.400Z,95562.00
2018-07-23T11:53:05.651Z,95558.00
2018-07-23T11:55:37.196Z,95565.00
2018-07-23T11:58:09.678Z,95558.00
2018-07-23T12:00:41.652Z,95556.00
2018-07-23T12:03:14.558Z,95551.00
2018-07-23T12:05:45.895Z,95552.00
2018-07-23T12:08:16.817Z,95551.00
2018-07-23T12:10:48.175Z,95557.00
2018-07-23T12:13:19.141Z,95561.00
2018-07-23T12:15:50.724Z,95560.00
2018-07-23T12:18:21.825Z,95562.00
2018-07-23T12:20:56.455Z,95562.00
2018-07-23T12:23:27.437Z,95565.00
2018-07-23T12:25:58.788Z,95567.00
2018-07-23T12:28:29.642Z,95564.00
2018-07-23T12:31:00.877Z,95560.00
2018-07-23T12:33:31.869Z,95565.00
2018-07-23T12:36:02.792Z,95562.00
2018-07-23T12:38:33.860Z,95557.00
2018-07-23T12:41:04.788Z,95556.00
2018-07-23T12:43:35.660Z,95550.00
2018-07-23T12:46:08.631Z,95547.00
2018-07-23T12:48:39.807Z,95544.00
2018-07-23T12:51:12.128Z,95545.00
2018-07-23T12:53:43.016Z,95546.00
2018-07-23T12:56:14.485Z,95545.00
2018-07-23T12:58:45.427Z,95547.00
2018-07-23T13:01:17.549Z,95543.00
2018-07-23T13:03:48.579Z,95542.00
2018-07-23T13:06:19.944Z,95544.00
2018-07-23T13:08:50.948Z,95541.00
2018-07-23T13:11:23.170Z,95545.00
2018-07-23T13:13:54.499Z,95541.00
2018-07-23T13:16:25.842Z,95538.00
2018-07-23T13:18:57.338Z,95540.00
2018-07-23T13:21:28.680Z,95535.00
2018-07-23T13:23:59.990Z,95532.00
2018-07-23T13:26:32.301Z,95535.00
2018-07-23T13:29:07.863Z,95533.00
2018-07-23T13:32:00.478Z,95536.00
2018-07-23T13:34:37.728Z,95545.00
2018-07-23T13:37:13.684Z,95547.00
2018-07-23T13:39:45.627Z,95533.00
2018-07-23T13:42:19.369Z,95542.00
2018-07-23T13:44:51.018Z,95546.00
2018-07-23T13:47:26.498Z,95541.00
2018-07-23T13:49:59.667Z,95536.00
2018-07-23T13:52:32.699Z,95533.00
2018-07-23T13:55:05.800Z,95530.00
2018-07-23T13:57:41.272Z,95531.00
2018-07-23T14:00:14.637Z,95528.00
2018-07-23T14:02:46.523Z,95524.00
2018-07-23T14:05:18.187Z,95527.00
2018-07-23T14:07:49.267Z,95526.00
2018-07-23T14:10:21.076Z,95531.00
2018-07-23T14:12:52.599Z,95530.00
2018-07-23T14:15:23.955Z,95533.00
2018-07-23T14:17:55.295Z,95530.00
2018-07-23T14:20:26.580Z,95532.00
2018-07-23T14:22:58.089Z,95534.00
2018-07-23T14:25:29.453Z,95539.00
2018-07-23T14:28:01.028Z,95533.00
2018-07-23T14:30:32.216Z,95535.00
2018-07-23T14:33:04.173Z,95532.00
2018-07-23T14:35:35.810Z,95529.00
2018-07-23T14:38:07.961Z,95523.00
2018-07-23T14:40:39.362Z,95525.00
2018-07-23T14:43:10.783Z,95525.00
2018-07-23T14:45:42.302Z,95523.00
2018-07-23T14:48:13.782Z,95516.00
2018-07-23T14:50:45.073Z,95517.00
2018-07-23T14:53:16.606Z,95518.00
2018-07-23T14:55:47.695Z,95512.00
2018-07-23T14:58:19.342Z,95511.00
2018-07-23T15:00:51.027Z,95513.00
2018-07-23T15:03:22.207Z,95518.00
2018-07-23T15:05:53.436Z,95515.00
2018-07-23T15:08:24.819Z,95517.00
2018-07-23T15:10:55.884Z,95522.00
2018-07-23T15:13:27.082Z,95519.00
2018-07-23T15:15:58.321Z,95519.00
2018-07-23T15:18:29.537Z,95515.00
2018-07-23T15:21:00.736Z,95512.00
2018-07-23T15:23:32.239Z,95512.00
2018-07-23T15:26:04.596Z,95511.00
2018-07-23T15:28:39.471Z,95505.00
2018-07-23T15:31:12.306Z,95500.00
2018-07-23T15:33:46.445Z,95500.00
2018-07-23T15:36:19.874Z,95498.00
2018-07-23T15:38:52.308Z,95498.00
2018-07-23T15:41:24.489Z,95494.00
2018-07-23T15:43:56.922Z,95493.00
2018-07-23T15:46:30.028Z,95494.00
2018-07-23T15:49:02.986Z,95491.00
2018-07-23T15:51:35.657Z,95484.00
2018-07-23T15:54:09.137Z,95495.00
2018-07-23T15:56:40.395Z,95494.00
2018-07-23T15:59:12.909Z,95496.00
2018-07-23T16:01:45.626Z,95499.00
2018-07-23T16:04:19.260Z,95503.00
2018-07-23T16:06:51.465Z,95500.00
2018-07-23T16:09:23.520Z,95503.00
2018-07-23T16:11:54.864Z,95500.00
2018-07-23T16:14:26.266Z,95499.00
2018-07-23T16:16:57.458Z,95498.00
2018-07-23T16:19:28.756Z,95500.00
2018-07-23T16:22:00.356Z,95502.00
2018-07-23T16:24:33.215Z,95497.00
2018-07-23T16:27:04.410Z,95494.00
2018-07-23T16:29:35.333Z,95495.00
2018-07-23T16:32:06.992Z,95490.00
2018-07-23T16:34:38.316Z,95490.00
2018-07-23T16:37:09.554Z,95490.00
2018-07-23T16:39:41.104Z,95493.00
2018-07-23T16:42:12.719Z,95494.00
2018-07-23T16:44:55.139Z,95495.00
2018-07-23T16:47:27.338Z,95501.00
2018-07-23T16:50:10.065Z,95497.00
2018-07-23T16:52:41.391Z,95499.00
2018-07-23T16:55:12.210Z,95493.00
2018-07-23T16:57:43.293Z,95496.00
2018-07-23T17:00:15.069Z,95502.00
2018-07-23T17:02:50.483Z,95507.00
2018-07-23T17:05:23.826Z,95509.00
2018-07-23T17:07:56.654Z,95504.00
2018-07-23T17:10:28.419Z,95507.00
2018-07-23T17:12:59.374Z,95504.00
2018-07-23T17:15:32.168Z,95507.00
2018-07-23T17:18:04.239Z,95509.00
2018-07-23T17:20:35.451Z,95505.00
2018-07-23T17:23:07.078Z,95506.00
2018-07-23T17:25:39.383Z,95506.00
2018-07-23T17:28:14.499Z,95503.00
2018-07-23T17:30:48.475Z,95506.00
2018-07-23T17:33:22.385Z,95509.00
2018-07-23T17:35:55.628Z,95506.00
2018-07-23T17:38:27.164Z,95500.00
2018-07-23T17:41:01.029Z,95508.00
2018-07-23T17:43:35.535Z,95510.00
2018-07-23T17:46:08.516Z,95522.00
2018-07-23T17:48:40.155Z,95519.00
2018-07-23T17:51:20.392Z,95516.00
2018-07-23T17:53:56.337Z,95518.00
2018-07-23T17:56:33.915Z,95530.00
2018-07-23T17:59:10.761Z,95530.00
2018-07-23T18:01:42.268Z,95534.00
2018-07-23T18:04:13.250Z,95528.00
2018-07-23T18:06:44.338Z,95534.00
2018-07-23T18:09:18.304Z,95538.00
2018-07-23T18:11:52.436Z,95535.00
2018-07-23T18:14:23.688Z,95537.00
2018-07-23T18:16:58.460Z,95534.00
2018-07-23T18:19:46.854Z,95537.00
2018-07-23T18:22:25.932Z,95538.00
2018-07-23T18:25:04.142Z,95541.00
2018-07-23T18:27:41.407Z,95543.00
2018-07-23T18:30:21.148Z,95546.00
2018-07-23T18:33:00.717Z,95543.00
2018-07-23T18:35:51.155Z,95553.00
2018-07-23T18:38:36.358Z,95558.00
2018-07-23T18:41:10.654Z,95559.00
2018-07-23T18:43:50.934Z,95555.00
2018-07-23T18:46:30.393Z,95562.00
2018-07-23T18:49:25.490Z,95563.00
2018-07-23T18:51:58.736Z,95565.00
2018-07-23T18:54:39.321Z,95569.00
2018-07-23T18:57:14.557Z,95576.00
2018-07-23T18:59:52.610Z,95579.00
2018-07-23T19:02:26.365Z,95586.00
2018-07-23T19:05:01.277Z,95588.00
2018-07-23T19:07:41.699Z,95598.00
2018-07-23T19:10:16.920Z,95596.00
2018-07-23T19:12:57.271Z,95599.00
2018-07-23T19:15:34.511Z,95604.00
2018-07-23T19:18:12.960Z,95608.00
2018-07-23T19:20:52.520Z,95617.00
2018-07-23T19:23:26.331Z,95618.00
2018-07-23T19:25:58.527Z,95629.00
2018-07-23T19:28:32.235Z,95630.00
2018-07-23T19:31:03.488Z,95637.00
2018-07-23T19:33:34.492Z,95637.00
2018-07-23T19:36:06.226Z,95643.00
2018-07-23T19:38:38.169Z,95645.00
2018-07-23T19:41:13.002Z,95643.00
2018-07-23T19:43:45.463Z,95652.00
2018-07-23T19:46:17.177Z,95653.00
2018-07-23T19:48:50.602Z,95652.00
2018-07-23T19:51:21.793Z,95655.00
2018-07-23T19:53:53.611Z,95657.00
2018-07-23T19:56:25.870Z,95656.00
2018-07-23T19:58:57.623Z,95659.00
2018-07-23T20:01:29.262Z,95652.00
2018-07-23T20:04:01.866Z,95652.00
2018-07-23T20:06:33.704Z,95653.00
2018-07-23T20:09:07.443Z,95653.00
2018-07-23T20:11:38.544Z,95652.00
2018-07-23T20:14:09.541Z,95656.00
2018-07-23T20:16:40.585Z,95656.00
2018-07-23T20:19:11.647Z,95654.00
2018-07-23T20:21:43.011Z,95654.00
2018-07-23T20:24:14.119Z,95653.00
2018-07-23T20:26:45.050Z,95652.00
2018-07-23T20:29:16.111Z,95655.00
2018-07-23T20:31:48.617Z,95650.00
2018-07-23T20:34:19.712Z,95654.00
2018-07-23T20:36:50.849Z,95651.00
2018-07-23T20:39:22.331Z,95650.00
2018-07-23T20:41:53.522Z,95656.00
2018-07-23T20:44:27.619Z,95655.00
2018-07-23T20:47:00.991Z,95651.00
2018-07-23T20:49:34.807Z,95658.00
2018-07-23T20:52:09.354Z,95656.00
2018-07-23T20:54:40.563Z,95657.00
2018-07-23T20:57:12.537Z,95656.00
2018-07-23T20:59:44.267Z,95653.00
2018-07-23T21:02:15.379Z,95656.00
2018-07-23T21:04:46.490Z,95663.00
2018-07-23T21:07:17.546Z,95659.00
2018-07-23T21:09:49.243Z,95665.00
2018-07-23T21:12:20.328Z,95655.00
2018-07-23T21:14:52.627Z,95655.00
2018-07-23T21:21:07.695Z,95653.00
2018-07-23T21:23:38.847Z,95653.00
2018-07-23T21:26:10.571Z,95654.00
2018-07-23T21:28:41.639Z,95654.00
2018-07-23T21:31:12.802Z,95658.00
2018-07-23T21:33:43.988Z,95658.00
2018-07-23T21:36:15.217Z,95663.00
2018-07-23T21:38:46.296Z,95664.00
2018-07-23T21:41:18.053Z,95661.00
2018-07-23T21:43:49.095Z,95665.00
2018-07-23T21:46:20.704Z,95664.00
2018-07-23T21:48:51.975Z,95660.00
2018-07-23T21:51:23.382Z,95671.00
2018-07-23T21:53:54.673Z,95677.00
2018-07-23T21:56:26.272Z,95673.00
2018-07-23T21:58:57.697Z,95673.00
2018-07-23T22:01:29.244Z,95677.00
2018-07-23T22:04:00.578Z,95670.00
2018-07-23T22:06:31.930Z,95674.00
2018-07-23T22:09:03.285Z,95679.00
2018-07-23T22:11:34.731Z,95680.00
2018-07-23T22:14:07.248Z,95685.00
2018-07-23T22:16:39.007Z,95686.00
2018-07-23T22:19:09.919Z,95683.00
2018-07-23T22:21:42.090Z,95683.00
2018-07-23T22:24:13.179Z,95683.00
2018-07-23T22:26:44.355Z,95691.00
2018-07-23T22:29:15.225Z,95692.00
2018-07-23T22:31:46.730Z,95688.00
2018-07-23T22:34:18.283Z,95688.00
2018-07-23T22:36:49.760Z,95685.00
2018-07-23T22:39:20.885Z,95678.00
2018-07-23T22:41:52.104Z,95678.00
2018-07-23T22:44:23.193Z,95682.00
2018-07-23T22:46:54.392Z,95681.00
2018-07-23T22:49:26.436Z,95680.00
2018-07-23T22:51:57.644Z,95681.00
2018-07-23T22:54:28.786Z,95678.00
2018-07-23T22:56:59.933Z,95672.00
2018-07-23T22:59:31.621Z,95675.00
2018-07-23T23:02:03.937Z,95676.00
2018-07-23T23:04:35.156Z,95675.00
2018-07-23T23:07:06.412Z,95679.00
2018-07-23T23:09:37.427Z,95682.00
2018-07-23T23:12:08.799Z,95675.00
2018-07-23T23:14:39.719Z,95677.00
2018-07-23T23:17:10.850Z,95678.00
2018-07-23T23:19:41.927Z,95677.00
2018-07-23T23:22:13.134Z,95672.00
2018-07-23T23:24:44.319Z,95677.00
2018-07-23T23:27:15.521Z,95677.00
2018-07-23T23:29:46.664Z,95683.00
2018-07-23T23:32:17.707Z,95681.00
2018-07-23T23:34:48.751Z,95680.00
2018-07-23T23:37:20.016Z,95680.00
2018-07-23T23:39:51.342Z,95683.00
2018-07-23T23:42:22.829Z,95679.00
2018-07-23T23:44:53.887Z,95681.00
2018-07-23T23:47:25.285Z,95679.00
2018-07-23T23:49:56.495Z,95683.00
2018-07-23T23:52:31.805Z,95680.00
2018-07-23T23:55:03.624Z,95685.00
2018-07-23T23:57:36.146Z,95680.00
